createdAt,value
2017-12-02T00:01:11.736Z,30.00
2017-12-02T00:03:39.296Z,25.70
2017-12-02T00:06:06.859Z,24.87
2017-12-02T00:08:34.511Z,25.70
2017-12-02T00:11:02.072Z,28.67
2017-12-02T00:13:29.677Z,27.20
2017-12-02T00:15:57.300Z,28.40
2017-12-02T00:18:24.865Z,26.10
2017-12-02T00:20:52.435Z,25.57
2017-12-02T00:23:20.089Z,26.50
2017-12-02T00:25:47.658Z,23.50
2017-12-02T00:28:16.127Z,23.70
2017-12-02T00:30:43.688Z,25.77
2017-12-02T00:33:12.172Z,26.97
2017-12-02T00:35:40.664Z,24.67
2017-12-02T00:38:08.931Z,25.00
2017-12-02T00:40:37.349Z,24.17
2017-12-02T00:43:05.888Z,23.40
2017-12-02T00:45:34.235Z,23.40
2017-12-02T00:48:02.625Z,24.57
2017-12-02T00:50:30.188Z,24.00
2017-12-02T00:52:57.784Z,29.43
2017-12-02T00:55:25.348Z,26.53
2017-12-02T00:57:52.973Z,25.50
2017-12-02T01:00:20.560Z,25.93
2017-12-02T01:02:48.120Z,26.43
2017-12-02T01:05:16.632Z,26.13
2017-12-02T01:07:44.980Z,24.73
2017-12-02T01:10:13.324Z,25.30
2017-12-02T01:12:40.883Z,25.67
2017-12-02T01:15:08.448Z,27.57
2017-12-02T01:17:36.708Z,26.20
2017-12-02T01:20:04.277Z,27.03
2017-12-02T01:22:31.873Z,25.00
2017-12-02T01:24:59.483Z,27.03
2017-12-02T01:27:27.820Z,24.70
2017-12-02T01:29:55.376Z,23.77
2017-12-02T01:32:23.828Z,25.73
2017-12-02T01:34:51.425Z,22.60
2017-12-02T01:37:18.995Z,26.77
2017-12-02T01:39:46.560Z,24.60
2017-12-02T01:42:14.129Z,24.47
2017-12-02T01:44:41.692Z,25.83
2017-12-02T01:47:09.336Z,25.70
2017-12-02T01:49:37.034Z,25.63
2017-12-02T01:52:04.598Z,28.13
2017-12-02T01:54:32.152Z,26.30
2017-12-02T01:56:59.771Z,27.63
2017-12-02T01:59:27.439Z,27.23
2017-12-02T02:01:54.996Z,28.03
2017-12-02T02:04:22.659Z,28.60
2017-12-02T02:06:50.218Z,29.17
2017-12-02T02:09:17.784Z,26.20
2017-12-02T02:11:45.344Z,26.97
2017-12-02T02:14:13.672Z,26.60
2017-12-02T02:16:41.240Z,25.43
2017-12-02T02:19:08.808Z,26.13
2017-12-02T02:21:36.367Z,27.80
2017-12-02T02:24:03.929Z,24.80
2017-12-02T02:26:31.489Z,27.73
2017-12-02T02:28:59.087Z,28.07
2017-12-02T02:31:26.713Z,24.63
2017-12-02T02:33:54.315Z,25.13
2017-12-02T02:36:21.872Z,25.03
2017-12-02T02:38:49.427Z,24.80
2017-12-02T02:41:16.987Z,25.33
2017-12-02T02:43:44.558Z,26.90
2017-12-02T02:46:12.157Z,25.70
2017-12-02T02:48:39.775Z,25.47
2017-12-02T02:51:07.335Z,25.87
2017-12-02T02:53:34.923Z,26.97
2017-12-02T02:56:02.489Z,25.27
2017-12-02T02:58:30.044Z,25.67
2017-12-02T03:00:57.603Z,23.63
2017-12-02T03:03:25.243Z,26.03
2017-12-02T03:05:52.799Z,27.50
2017-12-02T03:08:20.368Z,23.10
2017-12-02T03:10:47.927Z,26.60
2017-12-02T03:13:15.588Z,24.57
2017-12-02T03:15:43.152Z,25.47
2017-12-02T03:18:10.813Z,27.80
2017-12-02T03:20:38.368Z,29.60
2017-12-02T03:23:06.026Z,27.67
2017-12-02T03:25:33.591Z,27.60
2017-12-02T03:28:01.160Z,27.27
2017-12-02T03:30:28.820Z,27.90
2017-12-02T03:32:56.475Z,26.33
2017-12-02T03:35:24.140Z,22.47
2017-12-02T03:37:51.700Z,25.97
2017-12-02T03:40:19.267Z,24.20
2017-12-02T03:42:46.828Z,23.97
2017-12-02T03:45:14.400Z,26.23
2017-12-02T03:47:41.960Z,27.03
2017-12-02T03:50:09.622Z,25.47
2017-12-02T03:52:37.188Z,26.10
2017-12-02T03:55:04.827Z,24.83
2017-12-02T03:57:32.380Z,27.03
2017-12-02T03:59:59.932Z,26.33
2017-12-02T04:02:27.505Z,25.63
2017-12-02T04:04:55.854Z,24.03
2017-12-02T04:07:23.428Z,24.77
2017-12-02T04:09:50.990Z,29.67
2017-12-02T04:12:18.548Z,29.50
2017-12-02T04:14:46.148Z,29.13
2017-12-02T04:17:14.738Z,32.03
2017-12-02T04:19:43.249Z,31.37
2017-12-02T04:22:10.810Z,32.47
2017-12-02T04:24:38.373Z,32.27
2017-12-02T04:27:05.937Z,33.40
2017-12-02T04:29:33.508Z,28.67
2017-12-02T04:32:01.107Z,27.23
2017-12-02T04:34:28.669Z,30.90
2017-12-02T04:36:56.233Z,27.47
2017-12-02T04:39:23.835Z,30.40
2017-12-02T04:41:51.394Z,28.33
2017-12-02T04:44:18.956Z,29.53
2017-12-02T04:46:46.564Z,31.70
2017-12-02T04:49:14.160Z,30.37
2017-12-02T04:51:41.795Z,31.63
2017-12-02T04:54:09.468Z,31.30
2017-12-02T04:56:37.106Z,28.00
2017-12-02T04:59:05.565Z,31.17
2017-12-02T05:01:33.126Z,29.23
2017-12-02T05:04:00.692Z,33.83
2017-12-02T05:06:28.251Z,33.10
2017-12-02T05:08:55.844Z,30.00
2017-12-02T05:11:23.403Z,28.43
2017-12-02T05:13:51.816Z,32.27
2017-12-02T05:16:19.457Z,33.33
2017-12-02T05:18:47.111Z,31.10
2017-12-02T05:21:14.674Z,32.20
2017-12-02T05:23:42.240Z,35.27
2017-12-02T05:26:09.840Z,32.10
2017-12-02T05:28:37.400Z,38.13
2017-12-02T05:31:04.963Z,35.40
2017-12-02T05:33:32.528Z,31.70
2017-12-02T05:36:00.140Z,30.90
2017-12-02T05:38:27.701Z,30.53
2017-12-02T05:40:55.267Z,32.63
2017-12-02T05:43:22.826Z,38.10
2017-12-02T05:45:50.430Z,33.40
2017-12-02T05:48:17.988Z,31.47
2017-12-02T05:50:45.606Z,26.60
2017-12-02T05:53:13.171Z,31.30
2017-12-02T05:55:40.736Z,31.73
2017-12-02T05:58:08.400Z,33.33
2017-12-02T06:00:35.975Z,33.00
2017-12-02T06:03:03.541Z,36.10
2017-12-02T06:05:31.116Z,36.90
2017-12-02T06:07:58.744Z,35.90
2017-12-02T06:10:26.309Z,33.10
2017-12-02T06:12:53.959Z,35.10
2017-12-02T06:15:21.523Z,35.07
2017-12-02T06:17:49.083Z,35.00
2017-12-02T06:20:17.360Z,34.97
2017-12-02T06:22:44.938Z,37.63
2017-12-02T06:25:12.502Z,33.77
2017-12-02T06:27:40.070Z,38.70
2017-12-02T06:30:07.708Z,32.43
2017-12-02T06:32:35.269Z,35.67
2017-12-02T06:35:02.828Z,37.10
2017-12-02T06:37:30.483Z,34.63
2017-12-02T06:39:58.051Z,36.47
2017-12-02T06:42:25.628Z,37.73
2017-12-02T06:44:53.272Z,36.53
2017-12-02T06:47:20.839Z,31.50
2017-12-02T06:49:49.423Z,37.90
2017-12-02T06:52:16.996Z,37.23
2017-12-02T06:54:44.571Z,34.20
2017-12-02T06:57:12.135Z,37.87
2017-12-02T06:59:39.706Z,34.70
2017-12-02T07:02:07.305Z,41.97
2017-12-02T07:04:34.868Z,37.57
2017-12-02T07:07:02.444Z,32.80
2017-12-02T07:09:30.009Z,38.30
2017-12-02T07:11:57.577Z,31.23
2017-12-02T07:14:25.150Z,35.77
2017-12-02T07:16:52.783Z,37.17
2017-12-02T07:19:20.352Z,39.40
2017-12-02T07:21:48.816Z,37.07
2017-12-02T07:24:17.116Z,35.27
2017-12-02T07:26:45.452Z,33.90
2017-12-02T07:29:13.873Z,30.17
2017-12-02T07:31:41.438Z,30.80
2017-12-02T07:34:09.090Z,31.77
2017-12-02T07:36:36.655Z,29.27
2017-12-02T07:39:04.232Z,30.03
2017-12-02T07:41:31.796Z,28.77
2017-12-02T07:43:59.360Z,32.00
2017-12-02T07:46:27.973Z,34.70
2017-12-02T07:48:55.580Z,32.33
2017-12-02T07:51:23.213Z,31.47
2017-12-02T07:53:50.797Z,32.20
2017-12-02T07:56:19.188Z,33.97
2017-12-02T07:58:47.576Z,34.07
2017-12-02T08:01:15.152Z,33.30
2017-12-02T08:03:42.712Z,28.13
2017-12-02T08:06:10.352Z,29.07
2017-12-02T08:08:39.645Z,32.07
2017-12-02T08:11:07.218Z,36.50
2017-12-02T08:13:34.928Z,32.57
2017-12-02T08:16:03.444Z,94.93
2017-12-02T08:18:31.011Z,35.67
2017-12-02T08:20:58.629Z,31.03
2017-12-02T08:23:27.007Z,30.70
2017-12-02T08:25:55.347Z,30.67
2017-12-02T08:28:23.683Z,29.43
2017-12-02T08:30:51.283Z,32.63
2017-12-02T08:33:18.835Z,28.97
2017-12-02T08:35:46.406Z,30.07
2017-12-02T08:38:13.964Z,28.37
2017-12-02T08:40:41.532Z,31.43
2017-12-02T08:43:09.128Z,31.10
2017-12-02T08:45:36.688Z,30.63
2017-12-02T08:48:04.292Z,25.83
2017-12-02T08:50:31.848Z,27.23
2017-12-02T08:52:59.424Z,28.30
2017-12-02T08:55:26.989Z,28.77
2017-12-02T08:57:54.603Z,29.43
2017-12-02T09:00:22.939Z,29.53
2017-12-02T09:02:50.596Z,28.37
2017-12-02T09:05:18.252Z,30.50
2017-12-02T09:07:45.815Z,28.60
2017-12-02T09:10:13.380Z,29.97
2017-12-02T09:12:41.036Z,28.83
2017-12-02T09:15:08.592Z,25.87
2017-12-02T09:17:36.949Z,26.60
2017-12-02T09:20:05.375Z,27.57
2017-12-02T09:22:32.950Z,31.90
2017-12-02T09:25:00.587Z,25.13
2017-12-02T09:27:28.197Z,26.70
2017-12-02T09:29:55.758Z,24.60
2017-12-02T09:32:23.327Z,29.80
2017-12-02T09:34:50.893Z,25.70
2017-12-02T09:37:18.459Z,25.00
2017-12-02T09:39:46.048Z,28.93
2017-12-02T09:42:14.506Z,25.57
2017-12-02T09:44:42.801Z,23.40
2017-12-02T09:47:10.400Z,22.47
2017-12-02T09:49:38.868Z,23.37
2017-12-02T09:52:06.516Z,25.10
2017-12-02T09:54:34.141Z,24.40
2017-12-02T09:57:01.748Z,25.03
2017-12-02T09:59:29.313Z,27.50
2017-12-02T10:01:56.884Z,25.67
2017-12-02T10:04:24.446Z,23.07
2017-12-02T10:06:52.004Z,24.07
2017-12-02T10:09:19.645Z,21.73
2017-12-02T10:11:47.210Z,22.07
2017-12-02T10:14:14.777Z,22.73
2017-12-02T10:16:42.408Z,23.13
2017-12-02T10:19:09.969Z,24.53
2017-12-02T10:21:37.533Z,23.60
2017-12-02T10:24:05.092Z,23.97
2017-12-02T10:26:32.673Z,25.10
2017-12-02T10:29:00.239Z,24.87
2017-12-02T10:31:27.895Z,22.40
2017-12-02T10:33:56.807Z,21.57
2017-12-02T10:36:25.365Z,23.50
2017-12-02T10:38:52.959Z,24.33
2017-12-02T10:41:20.595Z,23.50
2017-12-02T10:43:48.188Z,22.10
2017-12-02T10:46:15.820Z,23.83
2017-12-02T10:48:43.424Z,20.60
2017-12-02T10:51:11.043Z,22.10
2017-12-02T10:53:38.648Z,23.03
2017-12-02T10:56:06.443Z,28.50
2017-12-02T10:58:34.056Z,22.50
2017-12-02T11:01:01.620Z,26.57
2017-12-02T11:03:29.251Z,23.33
2017-12-02T11:05:56.816Z,23.10
2017-12-02T11:08:24.375Z,20.57
2017-12-02T11:10:52.036Z,21.57
2017-12-02T11:13:20.464Z,21.50
2017-12-02T11:15:48.797Z,22.10
2017-12-02T11:18:17.324Z,21.20
2017-12-02T11:20:44.982Z,20.77
2017-12-02T11:23:12.551Z,21.53
2017-12-02T11:25:40.121Z,22.40
2017-12-02T11:28:07.735Z,20.50
2017-12-02T11:30:35.402Z,21.57
2017-12-02T11:33:03.984Z,20.37
2017-12-02T11:35:31.639Z,21.30
2017-12-02T11:37:59.208Z,21.33
2017-12-02T11:40:27.703Z,21.27
2017-12-02T11:42:56.062Z,23.50
2017-12-02T11:45:24.438Z,22.33
2017-12-02T11:47:52.832Z,20.90
2017-12-02T11:50:20.370Z,23.33
2017-12-02T11:52:48.008Z,23.93
2017-12-02T11:55:15.568Z,21.70
2017-12-02T11:57:44.036Z,22.13
2017-12-02T12:00:12.336Z,20.87
2017-12-02T12:02:40.745Z,19.73
2017-12-02T12:05:08.417Z,19.37
2017-12-02T12:07:35.984Z,19.77
2017-12-02T12:10:03.593Z,20.90
2017-12-02T12:12:31.156Z,21.00
2017-12-02T12:14:59.533Z,20.00
2017-12-02T12:17:27.131Z,23.17
2017-12-02T12:19:54.724Z,23.70
2017-12-02T12:22:22.353Z,20.70
2017-12-02T12:24:50.740Z,23.17
2017-12-02T12:27:18.341Z,19.20
2017-12-02T12:29:46.719Z,22.50
2017-12-02T12:32:15.092Z,21.10
2017-12-02T12:34:43.540Z,21.93
2017-12-02T12:37:11.103Z,20.93
2017-12-02T12:39:38.704Z,21.70
2017-12-02T12:42:06.262Z,22.73
2017-12-02T12:44:33.860Z,22.33
2017-12-02T12:47:01.445Z,25.70
2017-12-02T12:49:29.015Z,22.77
2017-12-02T12:51:56.611Z,21.13
2017-12-02T12:54:24.204Z,21.40
2017-12-02T12:56:51.799Z,23.23
2017-12-02T12:59:19.355Z,21.40
2017-12-02T13:01:46.920Z,22.47
2017-12-02T13:04:14.490Z,21.30
2017-12-02T13:06:42.055Z,22.80
2017-12-02T13:09:09.694Z,23.00
2017-12-02T13:11:38.183Z,20.33
2017-12-02T13:14:05.748Z,20.70
2017-12-02T13:16:34.216Z,22.37
2017-12-02T13:19:01.780Z,22.47
2017-12-02T13:21:29.339Z,22.00
2017-12-02T13:23:56.964Z,21.40
2017-12-02T13:26:24.561Z,20.30
2017-12-02T13:28:52.122Z,19.73
2017-12-02T13:31:19.684Z,21.57
2017-12-02T13:33:47.275Z,20.20
2017-12-02T13:36:14.832Z,22.87
2017-12-02T13:38:42.392Z,21.90
2017-12-02T13:41:09.947Z,20.87
2017-12-02T13:43:37.510Z,21.23
2017-12-02T13:46:05.150Z,19.30
2017-12-02T13:48:33.528Z,21.73
2017-12-02T13:51:01.912Z,20.70
2017-12-02T13:53:29.573Z,19.23
2017-12-02T13:55:57.196Z,20.03
2017-12-02T13:58:24.768Z,21.20
2017-12-02T14:00:52.331Z,20.10
2017-12-02T14:03:19.887Z,18.63
2017-12-02T14:05:47.481Z,19.90
2017-12-02T14:08:15.953Z,19.80
2017-12-02T14:10:44.412Z,19.80
2017-12-02T14:13:12.676Z,22.43
2017-12-02T14:15:40.271Z,19.60
2017-12-02T14:18:07.833Z,20.73
2017-12-02T14:20:35.395Z,20.43
2017-12-02T14:23:03.860Z,20.20
2017-12-02T14:25:32.209Z,20.40
2017-12-02T14:27:59.797Z,20.43
2017-12-02T14:30:27.384Z,21.47
2017-12-02T14:32:54.948Z,20.77
2017-12-02T14:35:22.503Z,19.10
2017-12-02T14:37:50.960Z,19.37
2017-12-02T14:40:20.317Z,19.80
2017-12-02T14:42:47.889Z,19.60
2017-12-02T14:45:15.512Z,20.87
2017-12-02T14:47:43.190Z,19.93
2017-12-02T14:50:10.755Z,19.37
2017-12-02T14:52:38.316Z,17.33
2017-12-02T14:55:06.804Z,20.57
2017-12-02T14:57:34.412Z,19.40
2017-12-02T15:00:01.977Z,18.80
2017-12-02T15:02:31.721Z,19.27
2017-12-02T15:04:59.350Z,19.63
2017-12-02T15:07:26.909Z,18.67
2017-12-02T15:09:54.477Z,20.10
2017-12-02T15:12:22.887Z,22.60
2017-12-02T15:14:50.457Z,21.50
2017-12-02T15:17:18.921Z,22.33
2017-12-02T15:19:47.160Z,23.43
2017-12-02T15:22:15.634Z,23.30
2017-12-02T15:24:43.995Z,21.40
2017-12-02T15:27:12.124Z,21.07
2017-12-02T15:29:39.690Z,24.07
2017-12-02T15:32:07.279Z,20.67
2017-12-02T15:34:35.832Z,20.57
2017-12-02T15:37:04.220Z,18.97
2017-12-02T15:39:32.054Z,19.57
2017-12-02T15:42:00.649Z,21.27
2017-12-02T15:44:29.018Z,22.50
2017-12-02T15:46:56.579Z,20.03
2017-12-02T15:49:24.885Z,22.77
2017-12-02T15:51:52.457Z,22.07
2017-12-02T15:54:20.964Z,21.07
2017-12-02T15:56:48.524Z,21.60
2017-12-02T15:59:16.149Z,21.90
2017-12-02T16:01:43.714Z,21.30
2017-12-02T16:04:12.054Z,26.10
2017-12-02T16:06:39.653Z,23.80
2017-12-02T16:09:08.168Z,21.63
2017-12-02T16:11:36.495Z,26.27
2017-12-02T16:14:04.844Z,23.10
2017-12-02T16:16:32.450Z,24.00
2017-12-02T16:19:00.124Z,26.00
2017-12-02T16:21:27.781Z,22.93
2017-12-02T16:23:55.443Z,24.93
2017-12-02T16:26:23.107Z,23.87
2017-12-02T16:28:50.672Z,20.83
2017-12-02T16:31:18.327Z,22.60
2017-12-02T16:33:45.892Z,26.47
2017-12-02T16:36:13.453Z,24.57
2017-12-02T16:38:41.015Z,25.10
2017-12-02T16:41:08.591Z,25.50
2017-12-02T16:43:37.081Z,25.60
2017-12-02T16:46:04.640Z,23.90
2017-12-02T16:48:33.096Z,22.13
2017-12-02T16:51:00.659Z,23.33
2017-12-02T16:53:28.221Z,24.27
2017-12-02T16:55:55.787Z,22.47
2017-12-02T16:58:23.356Z,23.43
2017-12-02T17:00:50.963Z,21.77
2017-12-02T17:03:18.670Z,21.23
2017-12-02T17:05:46.257Z,23.10
2017-12-02T17:08:13.823Z,24.67
2017-12-02T17:10:41.444Z,28.27
2017-12-02T17:13:09.000Z,26.40
2017-12-02T17:15:36.668Z,25.03
2017-12-02T17:18:04.228Z,25.30
2017-12-02T17:20:31.818Z,26.03
2017-12-02T17:22:59.375Z,24.20
2017-12-02T17:25:27.020Z,23.00
2017-12-02T17:27:54.679Z,23.73
2017-12-02T17:30:22.307Z,24.30
2017-12-02T17:32:49.866Z,21.33
2017-12-02T17:35:17.430Z,24.43
2017-12-02T17:37:44.987Z,23.07
2017-12-02T17:40:12.555Z,23.40
2017-12-02T17:42:40.153Z,23.90
2017-12-02T17:45:07.725Z,24.97
2017-12-02T17:47:35.337Z,21.67
2017-12-02T17:50:03.017Z,25.07
2017-12-02T17:52:30.691Z,23.77
2017-12-02T17:54:58.249Z,21.60
2017-12-02T17:57:26.029Z,23.60
2017-12-02T17:59:53.653Z,22.80
2017-12-02T18:02:21.258Z,23.70
2017-12-02T18:04:48.910Z,22.27
2017-12-02T18:07:16.469Z,23.83
2017-12-02T18:09:44.101Z,25.27
2017-12-02T18:12:11.664Z,23.17
2017-12-02T18:14:39.215Z,23.50
2017-12-02T18:17:06.777Z,22.73
2017-12-02T18:19:34.340Z,23.80
2017-12-02T18:22:01.949Z,21.67
2017-12-02T18:24:29.585Z,23.93
2017-12-02T18:26:57.151Z,21.50
2017-12-02T18:29:24.706Z,21.87
2017-12-02T18:31:52.276Z,24.13
2017-12-02T18:34:20.732Z,22.07
2017-12-02T18:36:48.288Z,20.40
2017-12-02T18:39:16.909Z,23.63
2017-12-02T18:41:45.295Z,22.77
2017-12-02T18:44:12.952Z,23.27
2017-12-02T18:46:41.461Z,20.83
2017-12-02T18:49:09.011Z,24.53
2017-12-02T18:51:36.621Z,25.77
2017-12-02T18:54:04.177Z,36.03
2017-12-02T18:56:31.738Z,25.93
2017-12-02T18:58:59.300Z,25.70
2017-12-02T19:01:26.864Z,24.33
2017-12-02T19:03:55.278Z,22.03
2017-12-02T19:06:22.842Z,22.40
2017-12-02T19:08:50.465Z,22.23
2017-12-02T19:11:18.061Z,22.13
2017-12-02T19:13:45.824Z,23.10
2017-12-02T19:16:13.544Z,22.93
2017-12-02T19:18:41.118Z,23.40
2017-12-02T19:21:09.000Z,24.17
2017-12-02T19:23:36.588Z,24.77
2017-12-02T19:26:04.139Z,24.17
2017-12-02T19:28:31.735Z,28.57
2017-12-02T19:30:59.335Z,24.60
2017-12-02T19:33:27.829Z,23.67
2017-12-02T19:35:55.380Z,24.70
2017-12-02T19:38:22.937Z,24.27
2017-12-02T19:40:50.548Z,26.90
2017-12-02T19:43:18.162Z,24.53
2017-12-02T19:45:45.724Z,27.67
2017-12-02T19:48:13.324Z,24.33
2017-12-02T19:50:43.594Z,25.27
2017-12-02T19:53:13.829Z,24.13
2017-12-02T19:55:44.944Z,26.93
2017-12-02T19:58:12.667Z,24.33
2017-12-02T20:00:42.474Z,28.07
2017-12-02T20:03:11.982Z,25.03
2017-12-02T20:05:39.602Z,25.40
2017-12-02T20:08:07.898Z,22.60
2017-12-02T20:10:36.357Z,26.40
2017-12-02T20:13:04.016Z,26.53
2017-12-02T20:15:31.608Z,23.23
2017-12-02T20:18:00.104Z,26.27
2017-12-02T20:20:27.752Z,26.37
2017-12-02T20:22:55.321Z,24.03
2017-12-02T20:25:22.882Z,27.83
2017-12-02T20:27:51.357Z,27.07
2017-12-02T20:30:19.777Z,32.00
2017-12-02T20:32:48.351Z,27.93
2017-12-02T20:35:16.685Z,27.23
2017-12-02T20:37:44.296Z,28.40
2017-12-02T20:40:11.860Z,27.83
2017-12-02T20:42:39.412Z,25.63
2017-12-02T20:45:07.085Z,27.13
2017-12-02T20:47:34.653Z,23.50
2017-12-02T20:50:02.252Z,25.30
2017-12-02T20:52:29.804Z,24.93
2017-12-02T20:54:57.404Z,22.67
2017-12-02T20:57:25.743Z,22.20
2017-12-02T20:59:53.300Z,25.63
2017-12-02T21:02:20.861Z,24.47
2017-12-02T21:04:48.420Z,23.23
2017-12-02T21:07:16.049Z,25.93
2017-12-02T21:09:43.608Z,26.20
2017-12-02T21:12:12.024Z,24.43
2017-12-02T21:14:39.652Z,21.77
2017-12-02T21:17:08.128Z,21.87
2017-12-02T21:19:35.792Z,20.00
2017-12-02T21:22:03.461Z,23.67
2017-12-02T21:24:31.836Z,25.90
2017-12-02T21:26:59.423Z,26.10
2017-12-02T21:29:27.789Z,21.27
2017-12-02T21:31:56.364Z,25.40
2017-12-02T21:34:24.821Z,22.50
2017-12-02T21:36:53.328Z,23.70
2017-12-02T21:39:21.911Z,22.40
2017-12-02T21:41:50.380Z,22.07
2017-12-02T21:44:18.716Z,23.40
2017-12-02T21:46:46.336Z,21.37
2017-12-02T21:49:14.683Z,21.63
2017-12-02T21:51:42.243Z,22.77
2017-12-02T21:54:09.803Z,18.10
2017-12-02T21:56:38.180Z,21.07
2017-12-02T21:59:05.784Z,21.90
2017-12-02T22:01:33.440Z,22.53
2017-12-02T22:04:01.047Z,20.20
2017-12-02T22:06:28.656Z,21.77
2017-12-02T22:08:56.912Z,23.40
2017-12-02T22:11:24.496Z,21.33
2017-12-02T22:13:52.088Z,23.40
2017-12-02T22:16:19.690Z,21.90
2017-12-02T22:18:48.168Z,22.70
2017-12-02T22:21:16.238Z,23.00
2017-12-02T22:23:43.798Z,24.60
2017-12-02T22:26:11.361Z,22.73
2017-12-02T22:28:38.956Z,23.10
2017-12-02T22:31:06.524Z,23.17
2017-12-02T22:33:34.120Z,24.67
2017-12-02T22:36:01.680Z,23.40
2017-12-02T22:38:29.304Z,23.37
2017-12-02T22:40:56.870Z,22.13
2017-12-02T22:43:24.464Z,24.30
2017-12-02T22:45:52.052Z,21.87
2017-12-02T22:48:20.548Z,24.03
2017-12-02T22:50:49.944Z,24.80
2017-12-02T22:53:17.661Z,23.60
2017-12-02T22:55:45.251Z,25.83
2017-12-02T22:58:12.824Z,26.17
2017-12-02T23:00:40.384Z,24.17
2017-12-02T23:03:07.952Z,23.37
2017-12-02T23:05:35.513Z,24.57
2017-12-02T23:08:03.171Z,25.07
2017-12-02T23:10:30.734Z,24.77
2017-12-02T23:12:58.290Z,21.03
2017-12-02T23:15:26.785Z,25.50
2017-12-02T23:17:54.377Z,24.77
2017-12-02T23:20:21.941Z,25.50
2017-12-02T23:22:49.514Z,25.37
2017-12-02T23:25:17.076Z,20.60
2017-12-02T23:27:44.704Z,24.93
2017-12-02T23:30:13.175Z,24.13
2017-12-02T23:32:40.740Z,28.93
2017-12-02T23:35:08.295Z,25.57
2017-12-02T23:37:35.852Z,24.47
2017-12-02T23:40:03.413Z,21.93
2017-12-02T23:42:30.971Z,24.50
2017-12-02T23:44:58.540Z,22.70
2017-12-02T23:47:26.100Z,22.03
2017-12-02T23:49:53.659Z,24.33
2017-12-02T23:52:21.301Z,23.20
2017-12-02T23:54:48.862Z,21.20
2017-12-02T23:57:16.421Z,22.77
2017-12-02T23:59:44.919Z,22.13
